X  Schlie├čen METAR Luftfahrt Wetterdaten     LOWW Vienna International Airport
Temperatur
14°C Temperatur
12°C Taupunkt
88% Feuchtigkeit



Wind
3 MPS
5 km/h
1 M/S
3 KTS



240°
WSW
Aktuelle Wetterlage

Klar Klar
Luftdruck 1024.92 (hPa) - 30.27 (inHg)
Sichtweite 6.2 (Meile) - 10 (Km)
Flughafen
Flughafen Code LOWW

Position : Vienna International Airport
Entfernung: 58 (mi)

Metar:
LOWW 252350Z 24003KT CAVOK 14/12 Q1025 NOSIG

Zeit: 26-09-2023 01:50 CEST